createdAt,value
2019-02-20T00:00:28.122Z,13.67
2019-02-20T00:03:15.722Z,13.70
2019-02-20T00:05:44.122Z,13.80
2019-02-20T00:08:12.274Z,14.60
2019-02-20T00:10:59.906Z,13.87
2019-02-20T00:13:28.078Z,14.03
2019-02-20T00:15:56.209Z,14.07
2019-02-20T00:18:24.546Z,13.90
2019-02-20T00:21:12.051Z,14.33
2019-02-20T00:26:39.085Z,14.47
2019-02-20T00:29:07.318Z,15.13
2019-02-20T00:31:35.446Z,15.93
2019-02-20T00:34:03.789Z,15.37
2019-02-20T00:36:51.246Z,15.00
2019-02-20T00:39:19.598Z,16.27
2019-02-20T00:41:47.743Z,17.30
2019-02-20T00:44:54.539Z,15.50
2019-02-20T00:53:12.282Z,15.90
2019-02-20T00:55:59.771Z,14.67
2019-02-20T01:01:29.530Z,15.63
2019-02-20T01:03:57.712Z,16.37
2019-02-20T01:06:25.846Z,15.17
2019-02-20T01:09:13.360Z,16.63
2019-02-20T01:11:41.490Z,14.83
2019-02-20T01:14:09.612Z,14.13
2019-02-20T01:16:57.313Z,15.20
2019-02-20T01:28:41.074Z,14.70
2019-02-20T01:31:09.274Z,14.27
2019-02-20T01:33:37.406Z,14.23
2019-02-20T01:36:05.579Z,15.73
2019-02-20T01:38:53.225Z,15.03
2019-02-20T01:41:21.406Z,15.83
2019-02-20T01:44:08.871Z,15.40
2019-02-20T01:49:38.292Z,15.07
2019-02-20T01:52:25.730Z,14.70
2019-02-20T01:57:55.936Z,16.03
2019-02-20T02:03:11.463Z,16.00
2019-02-20T02:05:39.647Z,16.77
2019-02-20T02:08:27.178Z,16.53
2019-02-20T02:10:55.526Z,17.97
2019-02-20T02:13:23.615Z,16.63
2019-02-20T02:15:51.921Z,15.57
2019-02-20T02:18:39.382Z,15.73
2019-02-20T02:27:08.395Z,16.93
2019-02-20T02:29:36.533Z,16.57
2019-02-20T02:32:24.160Z,17.37
2019-02-20T02:34:52.309Z,16.67
2019-02-20T02:37:20.471Z,17.60
2019-02-20T02:39:49.011Z,15.87
2019-02-20T02:42:17.148Z,15.10
2019-02-20T02:44:45.303Z,16.63
2019-02-20T02:47:14.173Z,16.60
2019-02-20T02:50:01.659Z,14.73
2019-02-20T02:55:05.155Z,15.67
2019-02-20T02:57:52.659Z,14.43
2019-02-20T03:02:54.687Z,16.13
2019-02-20T03:05:42.354Z,16.43
2019-02-20T03:11:22.893Z,15.00
2019-02-20T03:14:10.490Z,16.20
2019-02-20T03:16:38.662Z,16.50
2019-02-20T03:19:06.832Z,16.83
2019-02-20T03:21:34.963Z,14.73
2019-02-20T03:24:03.345Z,15.43
2019-02-20T03:26:31.498Z,15.37
2019-02-20T03:29:19.196Z,15.23
2019-02-20T03:32:06.791Z,15.87
2019-02-20T03:40:37.854Z,15.93
2019-02-20T03:43:06.005Z,14.90
2019-02-20T03:45:34.143Z,15.00
2019-02-20T03:48:21.662Z,16.00
2019-02-20T03:50:49.802Z,16.10
2019-02-20T03:53:37.327Z,14.77
2019-02-20T04:05:21.066Z,16.60
2019-02-20T04:07:49.206Z,16.23
2019-02-20T04:10:17.348Z,16.07
2019-02-20T04:12:45.693Z,17.00
2019-02-20T04:15:13.865Z,15.77
2019-02-20T04:17:42.005Z,16.07
2019-02-20T04:20:10.215Z,15.20
2019-02-20T04:22:38.351Z,14.73
2019-02-20T04:25:06.566Z,14.77
2019-02-20T04:27:34.801Z,16.27
2019-02-20T04:30:03.318Z,17.37
2019-02-20T04:32:31.453Z,15.93
2019-02-20T04:34:59.630Z,15.57
2019-02-20T04:37:27.785Z,15.20
2019-02-20T04:39:55.940Z,16.23
2019-02-20T04:42:24.134Z,16.53
2019-02-20T04:44:52.287Z,17.33
2019-02-20T04:47:20.436Z,15.43
2019-02-20T04:49:48.710Z,16.23
2019-02-20T04:52:16.861Z,17.40
2019-02-20T04:54:45.011Z,16.07
2019-02-20T04:57:13.178Z,17.07
2019-02-20T04:59:41.310Z,16.77
2019-02-20T05:02:09.459Z,16.63
2019-02-20T05:04:37.667Z,17.80
2019-02-20T05:07:05.907Z,16.53
2019-02-20T05:09:34.142Z,16.47
2019-02-20T05:12:02.524Z,15.70
2019-02-20T05:14:30.670Z,16.93
2019-02-20T05:16:58.821Z,16.33
2019-02-20T05:19:27.018Z,16.27
2019-02-20T05:21:55.136Z,16.47
2019-02-20T05:24:25.105Z,17.07
2019-02-20T05:26:53.189Z,17.50
2019-02-20T05:29:21.333Z,17.27
2019-02-20T05:31:49.488Z,17.60
2019-02-20T05:34:17.794Z,17.03
2019-02-20T05:36:45.925Z,16.90
2019-02-20T05:39:14.062Z,16.37
2019-02-20T05:41:42.273Z,15.87
2019-02-20T05:44:10.513Z,18.13
2019-02-20T05:46:38.670Z,17.30
2019-02-20T05:49:06.977Z,17.33
2019-02-20T05:51:35.132Z,17.27
2019-02-20T05:54:03.326Z,18.20
2019-02-20T05:56:31.636Z,18.90
2019-02-20T05:58:59.879Z,18.07
2019-02-20T06:01:28.096Z,17.43
2019-02-20T06:03:56.373Z,20.00
2019-02-20T06:06:24.511Z,23.53
2019-02-20T06:08:52.651Z,19.00
2019-02-20T06:11:20.865Z,18.13
2019-02-20T06:13:49.084Z,21.47
2019-02-20T06:16:17.225Z,18.70
2019-02-20T06:18:45.379Z,20.17
2019-02-20T06:21:13.543Z,22.83
2019-02-20T06:23:41.690Z,19.07
2019-02-20T06:26:10.524Z,21.30
2019-02-20T06:28:38.705Z,20.10
2019-02-20T06:31:06.905Z,19.73
2019-02-20T06:33:35.086Z,19.67
2019-02-20T06:36:03.311Z,18.80
2019-02-20T06:38:31.452Z,19.23
2019-02-20T06:40:59.730Z,19.67
2019-02-20T06:43:27.875Z,19.30
2019-02-20T06:45:56.018Z,18.73
2019-02-20T06:48:24.172Z,18.83
2019-02-20T06:50:52.367Z,20.97
2019-02-20T06:53:20.564Z,20.67
2019-02-20T06:55:48.904Z,22.03
2019-02-20T06:58:17.056Z,24.37
2019-02-20T07:00:45.231Z,20.07
2019-02-20T07:03:13.445Z,20.63
2019-02-20T07:05:41.619Z,20.03
2019-02-20T07:08:14.249Z,17.77
2019-02-20T07:11:00.451Z,18.13
2019-02-20T07:13:30.390Z,17.20
2019-02-20T07:16:09.167Z,20.80
2019-02-20T07:18:44.960Z,23.17
2019-02-20T07:21:14.657Z,22.23
2019-02-20T07:23:59.394Z,20.63
2019-02-20T07:26:44.181Z,21.90
2019-02-20T07:29:19.648Z,21.80
2019-02-20T07:31:47.806Z,20.70
2019-02-20T07:34:15.977Z,25.80
2019-02-20T07:36:44.282Z,22.47
2019-02-20T07:39:12.598Z,23.20
2019-02-20T07:41:40.745Z,22.73
2019-02-20T07:44:08.923Z,19.23
2019-02-20T07:46:37.061Z,20.70
2019-02-20T07:49:05.202Z,18.90
2019-02-20T07:51:33.498Z,21.97
2019-02-20T07:54:01.637Z,19.17
2019-02-20T07:56:29.785Z,27.13
2019-02-20T07:58:57.937Z,21.90
2019-02-20T08:01:26.091Z,20.80
2019-02-20T08:03:54.232Z,20.97
2019-02-20T08:06:23.042Z,20.57
2019-02-20T08:08:51.187Z,21.23
2019-02-20T08:11:19.325Z,21.60
2019-02-20T08:13:47.539Z,20.80
2019-02-20T08:16:15.682Z,20.00
2019-02-20T08:18:43.822Z,20.70
2019-02-20T08:21:12.153Z,19.77
2019-02-20T08:23:40.303Z,21.67
2019-02-20T08:26:08.433Z,21.23
2019-02-20T08:28:36.699Z,21.70
2019-02-20T08:31:04.854Z,25.47
2019-02-20T08:33:33.007Z,23.77
2019-02-20T08:36:01.170Z,26.50
2019-02-20T08:38:29.318Z,22.83
2019-02-20T08:40:57.458Z,25.83
2019-02-20T08:43:25.814Z,23.77
2019-02-20T08:45:53.903Z,23.03
2019-02-20T08:48:22.060Z,24.77
2019-02-20T08:50:50.386Z,24.17
2019-02-20T08:53:18.549Z,25.07
2019-02-20T08:55:46.702Z,22.87
2019-02-20T08:58:14.910Z,27.40
2019-02-20T09:00:43.055Z,24.00
2019-02-20T09:03:11.199Z,23.67
2019-02-20T09:05:39.386Z,22.23
2019-02-20T09:08:07.550Z,22.70
2019-02-20T09:10:35.733Z,27.60
2019-02-20T09:13:04.104Z,23.07
2019-02-20T09:15:32.254Z,24.23
2019-02-20T09:18:00.394Z,21.33
2019-02-20T09:20:28.559Z,21.90
2019-02-20T09:22:56.729Z,23.60
2019-02-20T09:25:24.862Z,24.30
2019-02-20T09:27:53.238Z,24.20
2019-02-20T09:30:28.270Z,24.53
2019-02-20T09:32:51.266Z,21.57
2019-02-20T09:35:19.433Z,20.93
2019-02-20T09:37:47.573Z,21.27
2019-02-20T09:40:16.590Z,22.87
2019-02-20T09:42:46.403Z,21.83
2019-02-20T09:45:14.554Z,22.10
2019-02-20T09:47:42.767Z,22.77
2019-02-20T09:50:11.222Z,22.17
2019-02-20T09:52:39.392Z,21.97
2019-02-20T09:55:08.813Z,22.93
2019-02-20T09:57:37.058Z,23.73
2019-02-20T10:00:06.737Z,24.13
2019-02-20T10:02:34.882Z,23.40
2019-02-20T10:05:03.294Z,22.63
2019-02-20T10:07:31.477Z,23.07
2019-02-20T10:09:59.614Z,21.80
2019-02-20T10:12:27.970Z,24.27
2019-02-20T10:14:56.109Z,22.67
2019-02-20T10:17:24.263Z,20.90
2019-02-20T10:19:52.407Z,22.70
2019-02-20T10:22:20.549Z,21.83
2019-02-20T10:24:48.699Z,22.47
2019-02-20T10:27:17.217Z,22.13
2019-02-20T10:29:45.356Z,22.37
2019-02-20T10:32:13.493Z,21.67
2019-02-20T10:34:41.883Z,24.10
2019-02-20T10:37:10.029Z,23.07
2019-02-20T10:39:38.186Z,24.83
2019-02-20T10:42:06.387Z,24.17
2019-02-20T10:44:34.553Z,23.47
2019-02-20T10:47:02.786Z,24.67
2019-02-20T10:49:33.100Z,26.90
2019-02-20T10:52:01.309Z,26.23
2019-02-20T10:54:29.535Z,26.33
2019-02-20T10:56:58.017Z,25.43
2019-02-20T10:59:26.159Z,25.47
2019-02-20T11:01:54.316Z,27.20
2019-02-20T11:04:23.010Z,25.13
2019-02-20T11:06:51.240Z,25.83
2019-02-20T11:09:19.661Z,24.90
2019-02-20T11:11:47.943Z,26.10
2019-02-20T11:14:16.110Z,23.87
2019-02-20T11:16:44.264Z,24.67
2019-02-20T11:19:12.484Z,23.90
2019-02-20T11:21:40.622Z,23.30
2019-02-20T11:24:08.779Z,25.03
2019-02-20T11:26:50.258Z,25.43
2019-02-20T11:29:07.032Z,25.50
2019-02-20T11:31:35.194Z,25.03
2019-02-20T11:34:03.368Z,24.87
2019-02-20T11:36:31.593Z,23.20
2019-02-20T11:38:59.816Z,23.70
2019-02-20T11:41:28.562Z,22.53
2019-02-20T11:43:56.719Z,23.67
2019-02-20T11:46:24.886Z,22.27
2019-02-20T11:48:53.082Z,23.43
2019-02-20T11:51:21.220Z,24.83
2019-02-20T11:53:49.370Z,22.00
2019-02-20T11:56:17.566Z,21.30
2019-02-20T11:58:45.793Z,23.10
2019-02-20T12:01:13.952Z,21.53
2019-02-20T12:03:42.174Z,21.00
2019-02-20T12:06:10.346Z,21.47
2019-02-20T12:08:38.514Z,21.53
2019-02-20T12:11:07.007Z,22.13
2019-02-20T12:13:35.237Z,21.80
2019-02-20T12:16:03.365Z,23.10
2019-02-20T12:18:31.546Z,22.27
2019-02-20T12:20:59.721Z,21.83
2019-02-20T12:23:36.360Z,22.13
2019-02-20T12:25:57.789Z,22.10
2019-02-20T12:28:25.978Z,21.73
2019-02-20T12:30:54.201Z,23.17
2019-02-20T12:33:22.394Z,23.00
2019-02-20T12:35:50.561Z,22.93
2019-02-20T12:38:18.835Z,23.70
2019-02-20T12:40:47.306Z,23.53
2019-02-20T12:43:15.456Z,23.23
2019-02-20T12:45:43.765Z,23.13
2019-02-20T12:48:12.006Z,22.90
2019-02-20T12:50:40.164Z,24.17
2019-02-20T12:53:08.462Z,22.97
2019-02-20T12:55:36.663Z,22.67
2019-02-20T12:58:04.985Z,23.60
2019-02-20T13:00:33.140Z,23.47
2019-02-20T13:03:08.924Z,22.93
2019-02-20T13:05:37.103Z,21.13
2019-02-20T13:08:05.592Z,22.10
2019-02-20T13:10:34.139Z,22.13
2019-02-20T13:13:02.306Z,21.67
2019-02-20T13:15:30.698Z,22.63
2019-02-20T13:17:58.893Z,21.07
2019-02-20T13:20:27.039Z,21.50
2019-02-20T13:22:55.294Z,22.97
2019-02-20T13:25:23.447Z,22.23
2019-02-20T13:27:51.592Z,21.70
2019-02-20T13:30:19.831Z,22.30
2019-02-20T13:32:47.975Z,21.63
2019-02-20T13:35:16.153Z,20.55
2019-02-20T13:37:44.678Z,21.10
2019-02-20T13:40:12.838Z,20.77
2019-02-20T13:42:40.999Z,20.35
2019-02-20T13:45:09.309Z,20.37
2019-02-20T13:47:37.623Z,21.17
2019-02-20T13:50:07.382Z,22.47
2019-02-20T13:52:35.558Z,22.03
2019-02-20T13:55:06.056Z,20.77
2019-02-20T13:57:33.974Z,22.48
2019-02-20T14:00:02.275Z,21.73
2019-02-20T14:02:30.421Z,22.23
2019-02-20T14:04:58.667Z,23.83
2019-02-20T14:07:27.055Z,22.13
2019-02-20T14:09:55.219Z,22.05
2019-02-20T14:12:23.656Z,22.87
2019-02-20T14:14:51.858Z,22.50
2019-02-20T14:17:26.499Z,22.57
2019-02-20T14:19:49.971Z,22.80
2019-02-20T14:22:18.428Z,21.90
2019-02-20T14:24:46.567Z,24.10
2019-02-20T14:27:17.087Z,22.52
2019-02-20T14:29:45.170Z,21.37
2019-02-20T14:32:13.338Z,21.63
2019-02-20T14:34:41.553Z,21.23
2019-02-20T14:37:10.055Z,20.90
2019-02-20T14:39:38.230Z,19.27
2019-02-20T14:42:06.442Z,19.73
2019-02-20T14:44:34.886Z,18.77
2019-02-20T14:47:03.132Z,18.53
2019-02-20T14:49:31.312Z,18.33
2019-02-20T14:51:59.486Z,17.87
2019-02-20T14:54:27.641Z,19.07
2019-02-20T14:56:55.841Z,18.50
2019-02-20T14:59:24.312Z,19.17
2019-02-20T15:01:52.730Z,18.15
2019-02-20T15:04:20.886Z,19.10
2019-02-20T15:06:49.275Z,19.67
2019-02-20T15:09:17.430Z,17.57
2019-02-20T15:11:45.911Z,18.30
2019-02-20T15:14:16.102Z,18.60
2019-02-20T15:16:44.202Z,19.50
2019-02-20T15:19:12.426Z,18.17
2019-02-20T15:21:40.666Z,20.03
2019-02-20T15:24:08.805Z,19.23
2019-02-20T15:26:36.990Z,19.90
2019-02-20T15:29:05.234Z,21.20
2019-02-20T15:31:34.028Z,21.00
2019-02-20T15:34:02.422Z,21.07
2019-02-20T15:36:30.661Z,20.37
2019-02-20T15:38:58.807Z,20.60
2019-02-20T15:41:26.983Z,19.97
2019-02-20T15:43:55.238Z,18.97
2019-02-20T15:46:23.393Z,20.10
2019-02-20T15:48:51.573Z,20.50
2019-02-20T15:51:20.372Z,19.97
2019-02-20T15:53:48.531Z,20.30
2019-02-20T15:56:16.697Z,21.43
2019-02-20T15:58:44.964Z,20.10
2019-02-20T16:01:13.179Z,21.20
2019-02-20T16:03:41.336Z,20.87
2019-02-20T16:06:09.554Z,20.77
2019-02-20T16:08:37.769Z,19.63
2019-02-20T16:11:05.906Z,19.50
2019-02-20T16:13:34.386Z,18.63
2019-02-20T16:16:02.536Z,18.80
2019-02-20T16:18:30.685Z,20.70
2019-02-20T16:20:58.925Z,19.07
2019-02-20T16:23:27.076Z,19.93
2019-02-20T16:25:55.223Z,19.67
2019-02-20T16:28:27.861Z,20.63
2019-02-20T16:30:53.272Z,19.97
2019-02-20T16:33:21.455Z,19.53
2019-02-20T16:35:49.638Z,21.27
2019-02-20T16:38:17.787Z,22.10
2019-02-20T16:40:46.214Z,19.77
2019-02-20T16:43:14.906Z,20.30
2019-02-20T16:45:43.131Z,21.47
2019-02-20T16:48:11.375Z,21.77
2019-02-20T16:50:39.628Z,21.97
2019-02-20T16:53:07.860Z,22.80
2019-02-20T16:55:36.080Z,22.63
2019-02-20T16:58:04.328Z,21.47
2019-02-20T17:00:32.866Z,21.17
2019-02-20T17:03:01.077Z,23.07
2019-02-20T17:05:29.400Z,23.10
2019-02-20T17:07:57.534Z,22.83
2019-02-20T17:10:25.766Z,22.83
2019-02-20T17:12:54.228Z,23.57
2019-02-20T17:15:22.438Z,22.83
2019-02-20T17:17:52.525Z,22.77
2019-02-20T17:20:21.040Z,22.17
2019-02-20T17:22:49.261Z,21.43
2019-02-20T17:25:18.146Z,23.53
2019-02-20T17:27:46.505Z,28.33
2019-02-20T17:30:15.393Z,28.70
2019-02-20T17:32:43.982Z,26.23
2019-02-20T17:35:12.418Z,34.70
2019-02-20T17:37:40.632Z,24.93
2019-02-20T17:40:10.173Z,23.70
2019-02-20T17:42:38.548Z,22.47
2019-02-20T17:45:13.772Z,21.97
2019-02-20T17:47:42.318Z,22.13
2019-02-20T17:50:14.742Z,21.70
2019-02-20T17:52:42.965Z,21.13
2019-02-20T17:55:11.502Z,20.63
2019-02-20T17:57:39.658Z,21.47
2019-02-20T18:00:10.629Z,22.10
2019-02-20T18:02:38.822Z,22.93
2019-02-20T18:05:07.272Z,22.70
2019-02-20T18:07:35.406Z,23.90
2019-02-20T18:10:04.945Z,21.73
2019-02-20T18:12:33.090Z,20.33
2019-02-20T18:15:01.270Z,21.17
2019-02-20T18:17:29.554Z,21.20
2019-02-20T18:19:57.705Z,21.23
2019-02-20T18:22:26.125Z,22.98
2019-02-20T18:24:54.318Z,21.47
2019-02-20T18:27:22.533Z,21.27
2019-02-20T18:29:50.722Z,21.27
2019-02-20T18:32:19.060Z,22.40
2019-02-20T18:34:47.292Z,22.23
2019-02-20T18:37:15.497Z,20.40
2019-02-20T18:39:43.731Z,21.93
2019-02-20T18:42:11.926Z,23.23
2019-02-20T18:44:40.134Z,26.07
2019-02-20T18:47:08.314Z,26.17
2019-02-20T18:49:38.806Z,23.60
2019-02-20T18:52:06.602Z,24.37
2019-02-20T18:54:34.769Z,24.40
2019-02-20T18:57:02.913Z,24.73
2019-02-20T18:59:31.052Z,24.00
2019-02-20T19:01:59.330Z,23.77
2019-02-20T19:04:27.486Z,22.33
2019-02-20T19:06:55.648Z,25.33
2019-02-20T19:09:24.283Z,26.10
2019-02-20T19:11:53.978Z,24.93
2019-02-20T19:14:23.670Z,24.67
2019-02-20T19:17:11.323Z,24.47
2019-02-20T19:19:43.930Z,25.00
2019-02-20T19:22:31.906Z,30.13
2019-02-20T19:25:11.003Z,25.20
2019-02-20T19:27:40.871Z,23.70
2019-02-20T19:30:10.572Z,24.07
2019-02-20T19:32:49.493Z,25.13
2019-02-20T19:35:25.348Z,30.53
2019-02-20T19:37:55.101Z,31.60
2019-02-20T19:40:42.753Z,44.50
2019-02-20T19:43:12.621Z,34.77
2019-02-20T19:45:51.055Z,34.03
2019-02-20T19:48:29.475Z,30.73
2019-02-20T19:51:02.127Z,29.60
2019-02-20T19:53:40.822Z,29.23
2019-02-20T19:56:13.521Z,24.30
2019-02-20T19:59:01.078Z,26.17
2019-02-20T20:01:48.656Z,25.40
2019-02-20T20:04:30.709Z,25.63
2019-02-20T20:07:06.488Z,25.07
2019-02-20T20:09:45.300Z,25.20
2019-02-20T20:12:24.235Z,23.80
2019-02-20T20:15:00.516Z,24.77
2019-02-20T20:17:30.312Z,23.63
2019-02-20T20:20:00.152Z,22.30
2019-02-20T20:22:42.205Z,24.57
2019-02-20T20:25:14.988Z,23.10
2019-02-20T20:27:47.685Z,22.43
2019-02-20T20:30:17.445Z,21.87
2019-02-20T20:32:56.042Z,22.43
2019-02-20T20:35:42.126Z,21.30
2019-02-20T20:38:12.493Z,22.07
2019-02-20T20:41:17.875Z,22.20
2019-02-20T20:43:47.614Z,23.27
2019-02-20T20:46:32.395Z,23.87
2019-02-20T20:49:02.109Z,22.53
2019-02-20T20:51:48.218Z,22.23
2019-02-20T20:54:24.328Z,24.00
2019-02-20T20:57:03.097Z,22.60
2019-02-20T20:59:44.912Z,22.17
2019-02-20T21:02:17.702Z,22.93
2019-02-20T21:04:50.486Z,22.23
2019-02-20T21:07:28.942Z,23.13
2019-02-20T21:09:58.858Z,21.93
2019-02-20T21:12:34.665Z,22.30
2019-02-20T21:15:20.911Z,21.67
2019-02-20T21:17:57.332Z,22.33
2019-02-20T21:20:30.341Z,22.77
2019-02-20T21:23:08.749Z,24.03
2019-02-20T21:25:55.030Z,24.73
2019-02-20T21:28:27.772Z,22.50
2019-02-20T21:31:03.514Z,22.50
2019-02-20T21:33:39.298Z,22.97
2019-02-20T21:36:09.027Z,22.53
2019-02-20T21:38:41.716Z,24.83
2019-02-20T21:41:20.779Z,22.63
2019-02-20T21:43:53.430Z,21.93
2019-02-20T21:46:32.270Z,23.47
2019-02-20T21:49:01.973Z,22.17
2019-02-20T21:51:37.746Z,24.67
2019-02-20T21:54:16.517Z,23.17
2019-02-20T21:56:52.081Z,23.67
2019-02-20T21:59:21.778Z,23.63
2019-02-20T22:01:51.474Z,24.60
2019-02-20T22:04:24.358Z,22.77
2019-02-20T22:07:00.109Z,23.60
2019-02-20T22:09:39.060Z,24.60
2019-02-20T22:12:11.779Z,23.07
2019-02-20T22:14:58.001Z,24.03
2019-02-20T22:17:33.574Z,24.60
2019-02-20T22:20:03.308Z,25.00
2019-02-20T22:22:32.998Z,24.73
2019-02-20T22:25:02.737Z,22.67
2019-02-20T22:27:32.499Z,24.03
2019-02-20T22:30:20.274Z,24.63
2019-02-20T22:32:57.502Z,23.53
2019-02-20T22:35:33.076Z,23.57
2019-02-20T22:38:12.459Z,22.47
2019-02-20T22:40:42.426Z,21.17
2019-02-20T22:43:28.753Z,22.07
2019-02-20T22:46:01.475Z,21.83
2019-02-20T22:48:31.143Z,20.90
2019-02-20T22:51:00.822Z,21.70
2019-02-20T22:53:46.993Z,22.20
2019-02-20T22:56:19.391Z,23.60
2019-02-20T22:58:52.327Z,20.80
2019-02-20T23:01:37.027Z,20.63
2019-02-20T23:04:10.054Z,21.50
2019-02-20T23:06:56.251Z,21.60
2019-02-20T23:09:32.338Z,20.60
2019-02-20T23:12:02.023Z,20.37
2019-02-20T23:14:31.725Z,21.37
2019-02-20T23:17:00.023Z,21.00
2019-02-20T23:19:28.177Z,20.77
2019-02-20T23:21:56.313Z,20.20
2019-02-20T23:24:24.594Z,19.53
2019-02-20T23:26:52.747Z,20.33
2019-02-20T23:29:20.894Z,19.77
2019-02-20T23:31:49.222Z,19.77
2019-02-20T23:34:17.444Z,20.13
2019-02-20T23:36:45.673Z,19.93
2019-02-20T23:39:14.032Z,20.53
2019-02-20T23:41:43.107Z,21.53
2019-02-20T23:44:11.478Z,21.77
2019-02-20T23:46:39.615Z,21.57
2019-02-20T23:49:07.754Z,21.97
2019-02-20T23:51:35.926Z,20.63
2019-02-20T23:54:04.068Z,19.97
2019-02-20T23:56:32.305Z,19.60
2019-02-20T23:59:00.480Z,21.27
